createdAt,value
2022-12-18T00:01:27.711Z,5.07
2022-12-18T00:03:56.523Z,4.97
2022-12-18T00:06:25.410Z,5.75
2022-12-18T00:08:53.890Z,5.22
2022-12-18T00:11:25.932Z,4.70
2022-12-18T00:13:55.389Z,4.97
2022-12-18T00:16:24.258Z,5.15
2022-12-18T00:18:53.553Z,4.28
2022-12-18T00:21:21.353Z,4.82
2022-12-18T00:23:50.181Z,4.78
2022-12-18T00:26:34.840Z,4.72
2022-12-18T00:29:06.736Z,4.55
2022-12-18T00:31:34.653Z,5.60
2022-12-18T00:34:02.381Z,4.70
2022-12-18T00:36:34.555Z,4.65
2022-12-18T00:39:03.525Z,4.85
2022-12-18T00:41:49.138Z,4.85
2022-12-18T00:44:18.114Z,4.75
2022-12-18T00:46:47.614Z,4.40
2022-12-18T00:49:16.049Z,3.83
2022-12-18T00:51:43.130Z,4.55
2022-12-18T00:54:12.085Z,5.05
2022-12-18T00:56:48.460Z,4.22
2022-12-18T00:59:17.230Z,4.85
2022-12-18T01:01:44.772Z,5.13
2022-12-18T01:04:11.950Z,4.13
2022-12-18T01:06:38.914Z,4.50
2022-12-18T01:09:07.421Z,5.35
2022-12-18T01:14:05.409Z,4.80
2022-12-18T01:16:32.714Z,3.78
2022-12-18T01:18:59.770Z,7.50
2022-12-18T01:21:28.223Z,4.50
2022-12-18T01:23:56.922Z,3.75
2022-12-18T01:26:25.468Z,4.95
2022-12-18T01:28:52.837Z,4.38
2022-12-18T01:31:31.424Z,4.03
2022-12-18T01:34:01.270Z,5.57
2022-12-18T01:36:34.500Z,4.18
2022-12-18T01:39:05.151Z,4.03
2022-12-18T01:41:52.525Z,4.38
2022-12-18T01:44:56.511Z,4.05
2022-12-18T01:47:45.582Z,4.22
2022-12-18T01:50:28.230Z,3.75
2022-12-18T01:52:59.137Z,4.07
2022-12-18T01:55:30.475Z,4.93
2022-12-18T01:58:00.243Z,4.32
2022-12-18T02:00:28.471Z,4.32
2022-12-18T02:02:55.698Z,4.32
2022-12-18T02:05:36.315Z,4.43
2022-12-18T02:08:35.836Z,4.90
2022-12-18T02:13:51.858Z,3.78
2022-12-18T02:16:21.900Z,3.67
2022-12-18T02:18:57.545Z,4.15
2022-12-18T02:21:33.502Z,4.18
2022-12-18T02:24:30.606Z,4.30
2022-12-18T02:27:05.955Z,4.07
2022-12-18T02:29:41.678Z,2.95
2022-12-18T02:34:41.070Z,3.90
2022-12-18T02:37:18.779Z,4.07
2022-12-18T02:39:49.369Z,3.30
2022-12-18T02:42:18.689Z,4.10
2022-12-18T02:44:51.304Z,4.75
2022-12-18T02:49:59.425Z,3.40
2022-12-18T02:52:52.236Z,3.65
2022-12-18T02:56:04.505Z,3.88
2022-12-18T02:59:06.539Z,4.55
2022-12-18T03:02:02.980Z,3.47
2022-12-18T03:04:35.539Z,3.92
2022-12-18T03:07:11.911Z,3.78
2022-12-18T03:09:47.520Z,4.07
2022-12-18T03:15:18.588Z,3.95
2022-12-18T03:18:00.436Z,3.53
2022-12-18T03:20:32.060Z,3.25
2022-12-18T03:23:08.779Z,3.10
2022-12-18T03:25:42.997Z,3.25
2022-12-18T03:28:16.198Z,2.40
2022-12-18T03:30:47.027Z,4.00
2022-12-18T03:33:25.114Z,4.15
2022-12-18T03:35:55.078Z,3.50
2022-12-18T03:38:23.594Z,2.67
2022-12-18T03:41:08.682Z,3.75
2022-12-18T03:44:10.708Z,3.83
2022-12-18T03:46:59.689Z,3.50
2022-12-18T03:49:51.739Z,2.90
2022-12-18T03:52:37.444Z,2.90
2022-12-18T03:55:08.224Z,4.50
2022-12-18T03:57:36.250Z,4.30
2022-12-18T04:00:13.833Z,4.15
2022-12-18T04:03:06.067Z,3.97
2022-12-18T04:05:43.745Z,4.18
2022-12-18T04:08:11.266Z,5.00
2022-12-18T04:10:44.024Z,3.42
2022-12-18T04:13:12.262Z,3.72
2022-12-18T04:15:40.055Z,4.95
2022-12-18T04:18:10.813Z,3.47
2022-12-18T04:20:41.640Z,3.60
2022-12-18T04:23:09.135Z,3.80
2022-12-18T04:25:37.679Z,3.65
2022-12-18T04:28:08.197Z,4.18
2022-12-18T04:30:36.663Z,3.00
2022-12-18T04:33:03.859Z,4.22
2022-12-18T04:35:32.518Z,3.58
2022-12-18T04:38:00.238Z,3.92
2022-12-18T04:40:27.939Z,3.85
2022-12-18T04:42:55.446Z,4.47
2022-12-18T04:45:22.870Z,3.72
2022-12-18T04:47:50.348Z,3.65
2022-12-18T04:50:17.563Z,4.53
2022-12-18T04:52:46.074Z,4.25
2022-12-18T04:55:13.966Z,3.50
2022-12-18T04:57:40.961Z,4.00
2022-12-18T05:00:08.932Z,2.90
2022-12-18T05:02:36.028Z,3.67
2022-12-18T05:05:03.919Z,4.57
2022-12-18T05:07:30.994Z,3.50
2022-12-18T05:09:58.106Z,4.45
2022-12-18T05:12:25.265Z,4.43
2022-12-18T05:14:52.767Z,3.67
2022-12-18T05:17:19.790Z,3.78
2022-12-18T05:19:46.830Z,3.13
2022-12-18T05:22:13.831Z,3.55
2022-12-18T05:24:40.936Z,4.43
2022-12-18T05:27:07.926Z,3.63
2022-12-18T05:29:34.896Z,4.15
2022-12-18T05:32:02.128Z,3.88
2022-12-18T05:34:29.123Z,4.55
2022-12-18T05:36:56.160Z,4.57
2022-12-18T05:39:23.198Z,3.88
2022-12-18T05:41:50.163Z,4.22
2022-12-18T05:44:17.108Z,3.92
2022-12-18T05:46:44.348Z,3.20
2022-12-18T05:49:11.348Z,3.55
2022-12-18T05:51:38.466Z,3.97
2022-12-18T05:54:06.288Z,4.45
2022-12-18T05:56:33.608Z,3.63
2022-12-18T05:59:00.974Z,4.32
2022-12-18T06:01:28.575Z,3.58
2022-12-18T06:03:56.486Z,3.63
2022-12-18T06:06:25.747Z,3.92
2022-12-18T06:08:53.419Z,3.22
2022-12-18T06:11:24.016Z,3.72
2022-12-18T06:13:57.871Z,3.40
2022-12-18T06:16:25.661Z,3.50
2022-12-18T06:18:52.698Z,2.95
2022-12-18T06:21:19.912Z,2.60
2022-12-18T06:23:46.973Z,4.15
2022-12-18T06:26:14.518Z,3.95
2022-12-18T06:28:42.361Z,3.03
2022-12-18T06:31:10.579Z,4.60
2022-12-18T06:33:38.849Z,3.15
2022-12-18T06:36:12.005Z,3.63
2022-12-18T06:38:43.160Z,3.88
2022-12-18T06:41:15.943Z,3.22
2022-12-18T06:43:43.589Z,3.95
2022-12-18T06:46:11.693Z,3.40
2022-12-18T06:48:39.007Z,3.80
2022-12-18T06:51:06.243Z,3.97
2022-12-18T06:53:34.012Z,3.75
2022-12-18T06:56:09.208Z,3.60
2022-12-18T06:58:37.274Z,2.35
2022-12-18T07:01:06.958Z,3.85
2022-12-18T07:03:34.110Z,3.50
2022-12-18T07:06:01.118Z,3.45
2022-12-18T07:08:29.585Z,4.25
2022-12-18T07:10:56.683Z,3.53
2022-12-18T07:13:24.173Z,3.25
2022-12-18T07:15:51.236Z,3.42
2022-12-18T07:18:18.233Z,3.75
2022-12-18T07:20:45.269Z,3.88
2022-12-18T07:23:13.071Z,4.78
2022-12-18T07:25:40.847Z,3.65
2022-12-18T07:28:10.590Z,3.92
2022-12-18T07:30:39.832Z,3.38
2022-12-18T07:33:07.136Z,3.53
2022-12-18T07:35:35.122Z,3.10
2022-12-18T07:38:02.144Z,3.67
2022-12-18T07:40:29.292Z,3.58
2022-12-18T07:42:56.549Z,3.53
2022-12-18T07:45:23.584Z,3.15
2022-12-18T07:47:50.585Z,3.72
2022-12-18T07:50:17.625Z,3.30
2022-12-18T07:52:44.665Z,4.65
2022-12-18T07:55:11.662Z,3.88
2022-12-18T07:57:50.405Z,3.33
2022-12-18T08:00:18.267Z,3.47
2022-12-18T08:02:45.366Z,3.97
2022-12-18T08:05:12.494Z,4.18
2022-12-18T08:07:39.471Z,4.60
2022-12-18T08:10:07.366Z,3.80
2022-12-18T08:12:34.396Z,3.65
2022-12-18T08:15:02.140Z,4.25
2022-12-18T08:17:30.643Z,3.85
2022-12-18T08:19:57.621Z,3.83
2022-12-18T08:22:24.747Z,3.40
2022-12-18T08:24:51.787Z,3.83
2022-12-18T08:27:29.256Z,3.60
2022-12-18T08:29:58.276Z,3.80
2022-12-18T08:32:26.904Z,3.00
2022-12-18T08:34:54.068Z,4.00
2022-12-18T08:37:21.434Z,2.92
2022-12-18T08:39:48.420Z,3.33
2022-12-18T08:42:34.258Z,3.28
2022-12-18T08:45:01.408Z,3.28
2022-12-18T08:47:31.256Z,3.47
2022-12-18T08:49:58.403Z,3.60
2022-12-18T08:52:25.504Z,3.50
2022-12-18T08:54:52.558Z,3.13
2022-12-18T08:57:21.380Z,2.92
2022-12-18T08:59:49.453Z,3.95
2022-12-18T09:02:16.799Z,3.65
2022-12-18T09:04:45.605Z,4.47
2022-12-18T09:09:44.937Z,3.10
2022-12-18T09:12:21.063Z,3.13
2022-12-18T09:14:48.179Z,3.05
2022-12-18T09:17:15.311Z,3.40
2022-12-18T09:19:42.667Z,3.63
2022-12-18T09:22:10.786Z,2.60
2022-12-18T09:24:37.801Z,3.17
2022-12-18T09:27:04.877Z,3.13
2022-12-18T09:29:32.004Z,3.67
2022-12-18T09:31:59.017Z,2.97
2022-12-18T09:34:26.046Z,4.03
2022-12-18T09:36:53.047Z,3.70
2022-12-18T09:39:20.218Z,3.00
2022-12-18T09:41:58.060Z,4.25
2022-12-18T09:44:41.610Z,3.30
2022-12-18T09:47:11.578Z,3.08
2022-12-18T09:49:47.292Z,3.67
2022-12-18T09:54:49.151Z,2.90
2022-12-18T09:57:25.555Z,2.35
2022-12-18T10:00:13.775Z,3.30
2022-12-18T10:02:42.132Z,3.63
2022-12-18T10:05:15.446Z,2.97
2022-12-18T10:07:45.625Z,2.35
2022-12-18T10:10:36.922Z,2.67
2022-12-18T10:13:09.727Z,2.97
2022-12-18T10:15:39.882Z,3.03
2022-12-18T10:18:26.483Z,3.03
2022-12-18T10:21:01.193Z,2.08
2022-12-18T10:23:48.742Z,2.67
2022-12-18T10:26:16.397Z,2.60
2022-12-18T10:28:45.069Z,3.00
2022-12-18T10:31:24.588Z,3.05
2022-12-18T10:33:55.026Z,2.75
2022-12-18T10:36:25.477Z,2.33
2022-12-18T10:38:52.814Z,2.65
2022-12-18T10:41:20.203Z,2.50
2022-12-18T10:43:49.329Z,2.88
2022-12-18T10:46:20.990Z,4.30
2022-12-18T10:48:48.177Z,2.50
2022-12-18T10:51:31.361Z,2.83
2022-12-18T10:54:07.803Z,2.67
2022-12-18T10:56:37.367Z,2.45
2022-12-18T10:59:15.910Z,2.38
2022-12-18T11:01:59.284Z,3.15
2022-12-18T11:04:32.773Z,3.33
2022-12-18T11:07:08.498Z,2.30
2022-12-18T11:12:12.010Z,3.03
2022-12-18T11:14:50.743Z,3.08
2022-12-18T11:17:26.162Z,2.90
2022-12-18T11:19:59.280Z,2.85
2022-12-18T11:22:28.913Z,2.63
2022-12-18T11:28:03.106Z,2.47
2022-12-18T11:30:34.554Z,2.63
2022-12-18T11:33:20.414Z,3.03
2022-12-18T11:35:57.191Z,3.08
2022-12-18T11:38:35.054Z,3.28
2022-12-18T11:41:45.996Z,3.00
2022-12-18T11:44:22.476Z,2.90
2022-12-18T11:46:56.345Z,2.88
2022-12-18T11:49:35.354Z,2.53
2022-12-18T11:52:23.677Z,2.70
2022-12-18T11:54:57.610Z,1.85
2022-12-18T11:57:54.504Z,3.08
2022-12-18T12:00:23.970Z,2.95
2022-12-18T12:03:18.439Z,2.78
2022-12-18T12:06:00.905Z,2.58
2022-12-18T12:08:34.028Z,2.50
2022-12-18T12:11:23.694Z,2.72
2022-12-18T12:14:34.970Z,3.13
2022-12-18T12:17:08.990Z,2.65
2022-12-18T12:19:45.136Z,2.42
2022-12-18T12:22:31.327Z,2.72
2022-12-18T12:24:58.307Z,3.20
2022-12-18T12:27:45.645Z,2.53
2022-12-18T12:30:38.829Z,3.03
2022-12-18T12:33:24.363Z,2.65
2022-12-18T12:36:01.523Z,2.70
2022-12-18T12:38:51.712Z,2.40
2022-12-18T12:41:51.134Z,2.90
2022-12-18T12:44:33.341Z,2.22
2022-12-18T12:47:14.556Z,2.33
2022-12-18T12:49:48.746Z,2.47
2022-12-18T12:52:56.611Z,2.58
2022-12-18T12:55:29.498Z,2.33
2022-12-18T12:58:18.583Z,2.10
2022-12-18T13:01:12.342Z,2.22
2022-12-18T13:03:46.796Z,2.72
2022-12-18T13:06:42.992Z,2.00
2022-12-18T13:09:11.918Z,2.13
2022-12-18T13:12:06.951Z,1.90
2022-12-18T13:14:36.777Z,2.13
2022-12-18T13:17:30.563Z,2.35
2022-12-18T13:20:05.710Z,2.30
2022-12-18T13:22:50.381Z,1.40
2022-12-18T13:25:38.741Z,2.05
2022-12-18T13:28:18.581Z,2.47
2022-12-18T13:30:55.592Z,2.58
2022-12-18T13:33:30.054Z,2.35
2022-12-18T13:36:14.675Z,1.98
2022-12-18T13:38:43.779Z,2.40
2022-12-18T13:41:20.480Z,1.95
2022-12-18T13:43:50.365Z,2.08
2022-12-18T13:46:30.391Z,2.90
2022-12-18T13:49:24.762Z,2.35
2022-12-18T13:51:54.778Z,2.70
2022-12-18T13:54:40.462Z,3.03
2022-12-18T13:57:41.949Z,3.88
2022-12-18T14:00:31.713Z,3.75
2022-12-18T14:03:00.255Z,3.40
2022-12-18T14:05:28.987Z,4.53
2022-12-18T14:08:00.093Z,3.97
2022-12-18T14:10:45.488Z,3.83
2022-12-18T14:13:35.135Z,4.20
2022-12-18T14:16:04.726Z,5.45
2022-12-18T14:18:56.893Z,5.40
2022-12-18T14:21:33.729Z,5.35
2022-12-18T14:24:05.389Z,6.53
2022-12-18T14:26:34.283Z,4.88
2022-12-18T14:29:19.423Z,6.32
2022-12-18T14:31:47.077Z,4.38
2022-12-18T14:34:18.397Z,5.57
2022-12-18T14:36:54.275Z,4.88
2022-12-18T14:39:21.343Z,6.10
2022-12-18T14:41:50.758Z,5.60
2022-12-18T14:44:17.717Z,4.38
2022-12-18T14:46:49.115Z,5.63
2022-12-18T14:49:20.658Z,4.38
2022-12-18T14:52:06.191Z,4.75
2022-12-18T14:54:38.281Z,3.50
2022-12-18T14:57:07.022Z,4.78
2022-12-18T14:59:34.412Z,4.50
2022-12-18T15:02:16.703Z,4.22
2022-12-18T15:04:45.075Z,4.75
2022-12-18T15:07:12.123Z,4.32
2022-12-18T15:09:41.034Z,4.13
2022-12-18T15:12:34.775Z,4.53
2022-12-18T15:15:02.022Z,3.13
2022-12-18T15:17:31.796Z,3.60
2022-12-18T15:20:10.182Z,3.55
2022-12-18T15:22:38.805Z,3.22
2022-12-18T15:25:37.784Z,3.13
2022-12-18T15:28:17.199Z,2.95
2022-12-18T15:31:00.660Z,3.13
2022-12-18T15:33:33.914Z,2.97
2022-12-18T15:36:12.070Z,3.67
2022-12-18T15:38:41.747Z,2.83
2022-12-18T15:41:21.357Z,2.72
2022-12-18T15:43:53.481Z,3.35
2022-12-18T15:46:23.616Z,2.67
2022-12-18T15:48:57.979Z,3.80
2022-12-18T15:51:37.019Z,2.70
2022-12-18T15:54:10.207Z,3.25
2022-12-18T15:56:56.081Z,2.70
2022-12-18T15:59:24.185Z,2.53
2022-12-18T16:01:56.079Z,3.10
2022-12-18T16:04:24.670Z,2.60
2022-12-18T16:07:14.963Z,2.47
2022-12-18T16:09:39.958Z,2.83
2022-12-18T16:12:29.399Z,2.80
2022-12-18T16:14:56.402Z,2.70
2022-12-18T16:17:23.490Z,3.10
2022-12-18T16:19:50.514Z,3.05
2022-12-18T16:22:23.939Z,2.30
2022-12-18T16:24:53.377Z,3.05
2022-12-18T16:27:21.817Z,3.05
2022-12-18T16:29:49.306Z,2.05
2022-12-18T16:32:19.143Z,3.03
2022-12-18T16:37:15.242Z,3.20
2022-12-18T16:39:43.817Z,2.60
2022-12-18T16:42:20.570Z,3.05
2022-12-18T16:44:49.360Z,3.65
2022-12-18T16:47:17.972Z,3.47
2022-12-18T16:49:46.445Z,3.08
2022-12-18T16:52:14.581Z,3.38
2022-12-18T16:54:41.728Z,3.17
2022-12-18T16:57:13.207Z,3.67
2022-12-18T16:59:40.266Z,3.00
2022-12-18T17:02:25.880Z,3.22
2022-12-18T17:04:56.495Z,3.08
2022-12-18T17:07:24.471Z,4.22
2022-12-18T17:09:51.695Z,3.33
2022-12-18T17:12:22.088Z,3.38
2022-12-18T17:14:49.227Z,2.47
2022-12-18T17:17:21.388Z,4.68
2022-12-18T17:19:49.672Z,3.80
2022-12-18T17:22:16.758Z,3.30
2022-12-18T17:24:43.778Z,3.78
2022-12-18T17:27:10.800Z,3.38
2022-12-18T17:29:42.454Z,3.22
2022-12-18T17:32:13.789Z,3.35
2022-12-18T17:34:41.353Z,4.00
2022-12-18T17:37:09.035Z,3.40
2022-12-18T17:39:36.291Z,3.22
2022-12-18T17:42:04.130Z,2.72
2022-12-18T17:44:34.446Z,2.60
2022-12-18T17:47:01.942Z,3.83
2022-12-18T17:49:29.284Z,3.40
2022-12-18T17:51:56.365Z,2.80
2022-12-18T17:54:23.396Z,2.88
2022-12-18T17:56:50.466Z,2.70
2022-12-18T17:59:17.632Z,2.22
2022-12-18T18:01:46.185Z,4.07
2022-12-18T18:04:13.992Z,2.83
2022-12-18T18:06:42.092Z,3.15
2022-12-18T18:09:15.626Z,3.65
2022-12-18T18:12:06.968Z,3.00
2022-12-18T18:14:34.132Z,2.80
2022-12-18T18:17:04.463Z,3.25
2022-12-18T18:19:33.686Z,3.63
2022-12-18T18:22:02.177Z,2.78
2022-12-18T18:24:30.652Z,4.30
2022-12-18T18:26:59.790Z,3.22
2022-12-18T18:29:30.552Z,3.30
2022-12-18T18:31:58.284Z,3.75
2022-12-18T18:34:28.822Z,3.20
2022-12-18T18:36:55.967Z,4.82
2022-12-18T18:39:23.121Z,3.53
2022-12-18T18:41:50.336Z,3.63
2022-12-18T18:44:18.874Z,2.97
2022-12-18T18:46:46.307Z,3.40
2022-12-18T18:49:14.391Z,3.00
2022-12-18T18:51:42.344Z,3.13
2022-12-18T18:54:10.093Z,3.83
2022-12-18T18:59:30.911Z,3.10
2022-12-18T19:02:04.093Z,3.67
2022-12-18T19:04:33.632Z,3.95
2022-12-18T19:07:01.191Z,3.70
2022-12-18T19:09:28.787Z,4.72
2022-12-18T19:12:14.827Z,3.20
2022-12-18T19:14:44.246Z,3.20
2022-12-18T19:17:11.333Z,3.33
2022-12-18T19:19:38.713Z,2.33
2022-12-18T19:22:05.801Z,4.70
2022-12-18T19:24:32.810Z,3.38
2022-12-18T19:26:59.827Z,3.50
2022-12-18T19:29:26.820Z,3.20
2022-12-18T19:31:53.870Z,4.57
2022-12-18T19:34:21.017Z,3.72
2022-12-18T19:36:48.216Z,4.15
2022-12-18T19:39:18.182Z,4.70
2022-12-18T19:41:47.135Z,3.83
2022-12-18T19:44:16.882Z,3.97
2022-12-18T19:46:46.265Z,3.92
2022-12-18T19:49:18.196Z,3.63
2022-12-18T19:51:45.811Z,3.88
2022-12-18T19:54:17.148Z,4.53
2022-12-18T19:56:45.715Z,4.07
2022-12-18T19:59:13.323Z,4.60
2022-12-18T20:01:40.748Z,4.05
2022-12-18T20:04:08.276Z,4.47
2022-12-18T20:06:47.283Z,4.78
2022-12-18T20:09:15.982Z,5.18
2022-12-18T20:11:43.837Z,2.40
2022-12-18T20:14:12.898Z,3.80
2022-12-18T20:16:40.078Z,3.78
2022-12-18T20:19:07.687Z,3.10
2022-12-18T20:21:34.912Z,3.97
2022-12-18T20:24:02.290Z,3.67
2022-12-18T20:26:30.001Z,3.70
2022-12-18T20:28:57.186Z,4.22
2022-12-18T20:31:24.636Z,4.32
2022-12-18T20:33:52.162Z,4.05
2022-12-18T20:36:23.574Z,4.13
2022-12-18T20:38:57.205Z,4.38
2022-12-18T20:41:26.698Z,4.68
2022-12-18T20:43:58.702Z,3.83
2022-12-18T20:46:25.795Z,3.55
2022-12-18T20:48:52.880Z,4.60
2022-12-18T20:51:21.359Z,4.63
2022-12-18T20:53:48.817Z,4.15
2022-12-18T20:56:21.512Z,4.43
2022-12-18T20:58:54.997Z,3.28
2022-12-18T21:01:23.611Z,3.30
2022-12-18T21:03:51.866Z,5.50
2022-12-18T21:06:20.904Z,4.13
2022-12-18T21:08:48.883Z,4.53
2022-12-18T21:11:38.325Z,5.93
2022-12-18T21:14:10.724Z,4.97
2022-12-18T21:16:38.430Z,3.83
2022-12-18T21:19:05.594Z,4.72
2022-12-18T21:21:35.864Z,3.17
2022-12-18T21:24:07.496Z,5.80
2022-12-18T21:26:34.563Z,4.28
2022-12-18T21:29:04.718Z,3.78
2022-12-18T21:31:34.546Z,5.60
2022-12-18T21:34:02.769Z,5.95
2022-12-18T21:36:30.555Z,5.43
2022-12-18T21:38:58.694Z,5.88
2022-12-18T21:41:44.941Z,3.75
2022-12-18T21:44:15.354Z,3.83
2022-12-18T21:46:44.865Z,6.18
2022-12-18T21:49:14.666Z,5.10
2022-12-18T21:51:41.689Z,5.72
2022-12-18T21:54:08.785Z,4.63
2022-12-18T21:56:52.462Z,4.75
2022-12-18T21:59:23.147Z,4.88
2022-12-18T22:01:51.073Z,5.60
2022-12-18T22:04:19.290Z,4.97
2022-12-18T22:06:47.553Z,4.57
2022-12-18T22:09:17.186Z,5.15
2022-12-18T22:11:44.306Z,5.25
2022-12-18T22:14:11.978Z,4.80
2022-12-18T22:16:39.239Z,5.50
2022-12-18T22:19:07.118Z,4.55
2022-12-18T22:21:36.945Z,3.30
2022-12-18T22:24:10.979Z,5.13
2022-12-18T22:26:40.334Z,4.63
2022-12-18T22:29:27.970Z,5.30
2022-12-18T22:34:23.154Z,4.72
2022-12-18T22:36:51.025Z,3.53
2022-12-18T22:39:28.543Z,4.82
2022-12-18T22:41:56.841Z,4.80
2022-12-18T22:44:23.989Z,4.55
2022-12-18T22:47:03.534Z,4.10
2022-12-18T22:49:35.147Z,5.28
2022-12-18T22:52:04.119Z,4.63
2022-12-18T22:54:31.674Z,3.30
2022-12-18T22:56:58.754Z,4.38
2022-12-18T22:59:25.732Z,3.75
2022-12-18T23:01:58.573Z,5.20
2022-12-18T23:04:35.077Z,3.90
2022-12-18T23:07:05.573Z,3.47
2022-12-18T23:09:33.310Z,3.85
2022-12-18T23:12:01.001Z,4.57
2022-12-18T23:14:29.311Z,2.95
2022-12-18T23:16:56.648Z,4.47
2022-12-18T23:19:24.292Z,4.00
2022-12-18T23:21:52.008Z,3.60
2022-12-18T23:24:21.600Z,4.57
2022-12-18T23:26:48.664Z,3.80
2022-12-18T23:29:15.669Z,5.05
2022-12-18T23:31:42.752Z,4.47
2022-12-18T23:34:12.591Z,5.30
2022-12-18T23:36:46.570Z,4.63
2022-12-18T23:39:28.724Z,4.20
2022-12-18T23:41:59.692Z,4.57
2022-12-18T23:44:26.871Z,4.00
2022-12-18T23:46:54.944Z,3.70
2022-12-18T23:49:22.160Z,4.03
2022-12-18T23:51:49.230Z,3.40
2022-12-18T23:54:16.330Z,2.72
2022-12-18T23:56:43.475Z,4.20
2022-12-18T23:59:10.726Z,2.78
